Time;durP1;ratioP1;P1;durP2;ratioP2;P2;SDS_P1;SDS_P2;PMS_P1;PMS_P2;Temp;Humidity;BMP_temperature;BMP_pressure;BME280_temperature;BME280_humidity;BME280_pressure;Samples;Min_cycle;Max_cycle;Signal;HPM_P1;HPM_P2
2021/01/17 00:00:45;;;;;;;15.45;2.42;;;;;;;8.23;69.99;100775.28;4432976;32;20113;-76
2021/01/17 00:03:11;;;;;;;22.75;3.20;;;;;;;8.18;70.20;100776.50;4431656;32;20128;-76
2021/01/17 00:05:38;;;;;;;20.30;2.92;;;;;;;8.25;70.11;100781.25;4431899;32;20107;-76
2021/01/17 00:08:09;;;;;;;16.70;2.67;;;;;;;8.32;70.09;100783.16;4434409;32;20071;-76
2021/01/17 00:10:35;;;;;;;21.33;3.37;;;;;;;8.30;70.10;100786.41;4431645;32;20321;-76
2021/01/17 00:13:01;;;;;;;21.08;3.10;;;;;;;8.39;70.80;100783.06;4432575;32;20097;-76
2021/01/17 00:15:27;;;;;;;19.62;2.72;;;;;;;8.45;70.58;100782.16;4432284;32;20105;-78
2021/01/17 00:17:53;;;;;;;16.85;3.00;;;;;;;8.39;71.06;100772.66;4433379;32;20046;-75
2021/01/17 00:20:21;;;;;;;13.25;2.70;;;;;;;8.44;71.50;100788.97;4432360;32;20194;-77
2021/01/17 00:22:48;;;;;;;18.40;2.92;;;;;;;8.51;71.51;100774.88;4431855;32;20042;-77
2021/01/17 00:25:17;;;;;;;22.40;3.40;;;;;;;8.44;72.15;100772.16;4433738;32;20038;-75
2021/01/17 00:27:43;;;;;;;13.68;2.30;;;;;;;8.53;72.08;100772.41;4433229;32;20037;-75
2021/01/17 00:30:11;;;;;;;26.52;3.47;;;;;;;8.35;72.20;100780.31;4434377;32;20068;-76
2021/01/17 00:32:37;;;;;;;14.25;2.90;;;;;;;8.36;72.81;100778.28;4431306;32;20438;-78
2021/01/17 00:35:06;;;;;;;20.17;3.80;;;;;;;8.35;72.71;100774.72;4433010;32;20435;-77
2021/01/17 00:37:31;;;;;;;19.12;3.10;;;;;;;8.41;72.91;100773.03;4433558;32;20132;-77
2021/01/17 00:39:57;;;;;;;16.27;2.85;;;;;;;8.36;72.63;100781.91;4431613;32;20415;-77
2021/01/17 00:42:24;;;;;;;19.12;3.37;;;;;;;8.34;72.89;100773.09;4432707;32;20050;-78
2021/01/17 00:44:50;;;;;;;23.10;3.42;;;;;;;8.34;73.17;100761.12;4432951;32;20038;-78
2021/01/17 00:47:17;;;;;;;20.05;2.78;;;;;;;8.29;74.36;100756.78;4433231;32;20042;-77
2021/01/17 00:49:43;;;;;;;15.38;3.17;;;;;;;8.27;74.36;100755.59;4432996;32;20073;-77
2021/01/17 00:52:20;;;;;;;16.25;2.62;;;;;;;8.09;73.77;100762.22;4430770;32;20385;-75
2021/01/17 00:54:46;;;;;;;22.02;3.30;;;;;;;8.12;74.18;100757.78;4429102;32;20096;-77
2021/01/17 00:57:12;;;;;;;21.65;3.85;;;;;;;7.93;74.94;100766.84;4433698;32;20052;-76
2021/01/17 00:59:38;;;;;;;22.35;3.17;;;;;;;7.88;75.04;100767.31;4431601;32;20088;-77
2021/01/17 01:02:05;;;;;;;21.10;3.25;;;;;;;7.90;74.81;100762.09;4431892;32;20061;-76
2021/01/17 01:04:30;;;;;;;24.30;3.62;;;;;;;7.90;74.70;100765.69;4431799;32;20034;-76
2021/01/17 01:06:56;;;;;;;20.02;3.78;;;;;;;7.80;75.08;100774.22;4432406;32;20130;-77
2021/01/17 01:09:22;;;;;;;21.75;2.78;;;;;;;7.89;74.54;100774.50;4431277;32;20069;-76
2021/01/17 01:11:48;;;;;;;16.65;4.05;;;;;;;7.95;74.43;100768.00;4431402;32;20126;-76
2021/01/17 01:14:15;;;;;;;15.73;2.50;;;;;;;8.01;74.08;100776.75;4433123;32;20038;-75
2021/01/17 01:16:40;;;;;;;16.33;2.70;;;;;;;8.06;73.79;100777.09;4431427;32;20065;-77
2021/01/17 01:19:06;;;;;;;10.30;2.22;;;;;;;8.09;73.57;100778.25;4432470;32;20648;-76
2021/01/17 01:21:34;;;;;;;14.87;2.53;;;;;;;7.98;73.59;100795.19;4432768;32;20134;-76
2021/01/17 01:24:00;;;;;;;16.02;2.42;;;;;;;7.98;74.40;100778.38;4429749;32;20074;-77
2021/01/17 01:26:27;;;;;;;10.00;1.85;;;;;;;8.10;74.79;100791.03;4439386;32;20038;-77
2021/01/17 01:28:54;;;;;;;7.12;1.42;;;;;;;8.11;74.90;100781.44;4434129;32;20372;-76
2021/01/17 01:31:22;;;;;;;11.07;1.75;;;;;;;7.92;74.97;100782.09;4436065;32;20041;-77
2021/01/17 01:33:49;;;;;;;9.85;1.90;;;;;;;7.93;75.24;100786.47;4434292;32;20132;-77
2021/01/17 01:36:25;;;;;;;11.63;2.00;;;;;;;8.01;74.99;100785.94;4434442;32;20025;-77
2021/01/17 01:38:52;;;;;;;13.82;2.35;;;;;;;8.05;74.82;100788.72;4433643;32;20103;-76
2021/01/17 01:41:19;;;;;;;14.60;2.20;;;;;;;8.16;75.57;100780.94;4435473;32;20111;-77
2021/01/17 01:43:45;;;;;;;13.80;2.50;;;;;;;8.19;75.74;100785.69;4435426;32;20061;-77
2021/01/17 01:46:14;;;;;;;8.68;2.10;;;;;;;8.24;75.02;100781.66;4434941;32;20053;-77
2021/01/17 01:48:40;;;;;;;19.62;2.10;;;;;;;8.24;73.95;100785.28;4435053;32;20422;-77
2021/01/17 01:51:06;;;;;;;24.55;3.33;;;;;;;8.19;73.43;100794.09;4436009;32;20094;-76
2021/01/17 01:53:32;;;;;;;16.80;2.83;;;;;;;8.18;72.89;100787.72;4434742;32;20089;-77
2021/01/17 01:55:59;;;;;;;18.33;2.83;;;;;;;8.12;72.58;100797.00;4436024;32;20080;-76
2021/01/17 01:58:27;;;;;;;18.83;3.03;;;;;;;8.14;72.48;100791.78;4434387;32;20087;-75
2021/01/17 02:00:53;;;;;;;10.85;2.05;;;;;;;8.09;72.40;100790.25;4435401;32;20037;-76
2021/01/17 02:03:18;;;;;;;21.30;3.17;;;;;;;7.96;72.80;100796.84;4433520;32;20107;-77
2021/01/17 02:05:44;;;;;;;12.15;2.40;;;;;;;7.87;72.92;100797.34;4435333;32;20438;-77
2021/01/17 02:10:48;;;;;;;20.98;2.60;;;;;;;8.07;72.62;100798.28;3986622;32;15025197;-76
2021/01/17 02:13:38;;;;;;;18.80;3.13;;;;;;;7.96;72.56;100791.22;4441133;32;20086;-76
2021/01/17 02:16:07;;;;;;;20.30;3.28;;;;;;;8.10;71.95;100780.63;4437471;32;20033;-75
2021/01/17 02:18:35;;;;;;;23.65;3.25;;;;;;;7.91;72.28;100791.69;4442764;32;20183;-76
2021/01/17 02:21:02;;;;;;;15.98;2.40;;;;;;;8.03;72.18;100788.31;4436213;32;20493;-77
2021/01/17 02:23:39;;;;;;;15.40;2.20;;;;;;;7.99;71.96;100804.41;4435158;32;20026;-76
2021/01/17 02:26:06;;;;;;;22.35;2.37;;;;;;;8.03;71.09;100803.16;4438520;32;20053;-77
2021/01/17 02:28:32;;;;;;;19.95;2.30;;;;;;;8.04;71.08;100806.75;4434515;32;20666;-75
2021/01/17 02:30:58;;;;;;;17.40;2.10;;;;;;;8.01;71.38;100799.97;4437111;32;20077;-75
2021/01/17 02:33:41;;;;;;;12.93;1.98;;;;;;;7.96;71.42;100802.44;4440801;32;20388;-74
2021/01/17 02:39:28;;;;;;;21.23;2.92;;;;;;;8.34;71.16;100809.13;3986704;32;15025581;-75
2021/01/17 02:41:58;;;;;;;6.65;1.67;;;;;;;8.34;71.16;100805.97;4443775;32;20025;-75
2021/01/17 02:44:29;;;;;;;8.43;1.67;;;;;;;7.97;71.54;100821.62;4442965;32;20025;-76
2021/01/17 02:46:55;;;;;;;11.45;1.70;;;;;;;7.93;70.93;100812.47;4444832;32;20063;-74
2021/01/17 02:49:21;;;;;;;11.88;2.22;;;;;;;7.92;70.71;100816.47;4443078;32;20071;-75
2021/01/17 02:51:49;;;;;;;11.70;1.67;;;;;;;7.77;71.33;100822.69;4445750;32;20037;-76
2021/01/17 02:54:21;;;;;;;8.50;1.40;;;;;;;7.73;71.58;100833.91;4442103;32;20064;-76
2021/01/17 02:56:56;;;;;;;13.93;2.05;;;;;;;7.82;71.34;100837.03;4445486;32;20053;-75
2021/01/17 02:59:29;;;;;;;16.10;1.75;;;;;;;7.69;71.43;100838.78;4442123;32;20025;-75
2021/01/17 03:01:55;;;;;;;11.77;1.70;;;;;;;7.73;71.77;100835.91;4437082;32;20332;-76
2021/01/17 03:07:20;;;;;;;11.88;2.15;;;;;;;8.07;71.63;100847.91;3996806;32;15028727;-76
2021/01/17 03:09:46;;;;;;;15.70;2.03;;;;;;;8.07;71.63;100847.91;4444262;32;20069;-75
2021/01/17 03:12:12;;;;;;;11.73;1.98;;;;;;;7.70;73.27;100848.75;4445308;32;20068;-75
2021/01/17 03:14:39;;;;;;;9.25;1.73;;;;;;;7.55;74.41;100852.12;4444389;32;20030;-76
2021/01/17 03:17:08;;;;;;;10.52;1.30;;;;;;;7.25;75.32;100840.81;4446659;32;20076;-76
2021/01/17 03:19:34;;;;;;;11.20;1.58;;;;;;;7.32;75.15;100851.94;4441933;32;20052;-75
2021/01/17 03:22:01;;;;;;;4.20;1.45;;;;;;;7.15;75.33;100844.50;4441040;32;20041;-76
2021/01/17 03:24:27;;;;;;;6.95;1.27;;;;;;;7.06;74.80;100849.78;4446807;32;20025;-77
2021/01/17 03:26:53;;;;;;;8.63;1.23;;;;;;;7.12;75.13;100842.53;4445550;32;20074;-76
2021/01/17 03:29:19;;;;;;;7.95;1.25;;;;;;;7.06;74.77;100844.19;4433611;32;20077;-77
2021/01/17 03:31:45;;;;;;;10.55;2.28;;;;;;;6.98;74.38;100842.62;4442047;32;20045;-76
2021/01/17 03:34:11;;;;;;;7.32;1.20;;;;;;;7.00;73.88;100854.22;4433615;32;20411;-77
2021/01/17 03:36:37;;;;;;;9.07;1.62;;;;;;;7.07;73.79;100856.97;4430403;32;20709;-75
2021/01/17 03:39:04;;;;;;;15.88;2.12;;;;;;;7.08;73.40;100852.94;4428944;32;20060;-75
2021/01/17 03:41:29;;;;;;;11.90;2.17;;;;;;;7.09;73.15;100848.97;4427284;32;20484;-76
2021/01/17 03:43:55;;;;;;;14.93;2.45;;;;;;;7.12;73.01;100851.72;4427607;32;20335;-76
2021/01/17 03:46:21;;;;;;;9.77;1.77;;;;;;;7.09;72.76;100857.34;4430329;32;20057;-75
2021/01/17 03:48:46;;;;;;;16.52;1.70;;;;;;;7.04;72.44;100854.97;4429575;32;20029;-77
2021/01/17 03:51:12;;;;;;;14.20;2.30;;;;;;;7.06;72.12;100867.34;4429450;32;20094;-76
2021/01/17 03:53:38;;;;;;;14.27;2.00;;;;;;;7.20;71.76;100864.44;4423947;32;20070;-76
2021/01/17 03:56:04;;;;;;;12.93;1.77;;;;;;;7.19;71.48;100860.06;4429146;32;20033;-76
2021/01/17 03:58:30;;;;;;;13.77;2.03;;;;;;;7.22;71.56;100853.66;4429765;32;20037;-77
2021/01/17 04:00:56;;;;;;;19.02;2.17;;;;;;;7.22;71.79;100870.44;4428804;32;20440;-76
2021/01/17 04:03:21;;;;;;;16.23;1.87;;;;;;;7.24;71.83;100881.22;4428565;32;20095;-76
2021/01/17 04:05:47;;;;;;;15.52;2.72;;;;;;;7.29;71.80;100872.38;4429143;32;20042;-75
2021/01/17 04:08:13;;;;;;;11.02;1.87;;;;;;;7.27;72.08;100872.00;4430331;32;20068;-75
2021/01/17 04:10:38;;;;;;;14.30;2.20;;;;;;;7.23;72.30;100868.41;4429717;32;20038;-75
2021/01/17 04:13:04;;;;;;;7.03;1.60;;;;;;;7.16;72.56;100868.47;4429093;32;20438;-76
2021/01/17 04:15:30;;;;;;;13.30;1.73;;;;;;;7.11;71.78;100878.13;4428147;32;20388;-76
2021/01/17 04:17:55;;;;;;;16.83;2.03;;;;;;;7.17;71.95;100870.87;4420659;32;20076;-75
2021/01/17 04:20:21;;;;;;;10.45;1.90;;;;;;;7.21;71.71;100871.63;4416682;32;20510;-76
2021/01/17 04:22:47;;;;;;;13.70;1.98;;;;;;;7.18;72.04;100866.06;4411553;32;20451;-75
2021/01/17 04:25:13;;;;;;;12.65;1.75;;;;;;;7.25;71.69;100861.22;4420144;32;20089;-75
2021/01/17 04:27:39;;;;;;;10.30;1.62;;;;;;;7.21;71.68;100857.63;4418839;32;20140;-77
2021/01/17 04:30:05;;;;;;;11.77;1.90;;;;;;;7.17;71.66;100850.47;4417875;32;20034;-76
2021/01/17 04:32:32;;;;;;;13.77;2.00;;;;;;;7.16;71.99;100862.88;4418799;32;20066;-77
2021/01/17 04:34:58;;;;;;;10.07;2.05;;;;;;;7.03;72.17;100856.97;4413973;32;20131;-75
2021/01/17 04:37:25;;;;;;;9.38;1.90;;;;;;;7.15;71.88;100858.50;4416815;32;20368;-75
2021/01/17 04:39:51;;;;;;;9.82;1.48;;;;;;;7.12;72.01;100859.34;4420105;32;20030;-76
2021/01/17 04:42:19;;;;;;;8.75;1.42;;;;;;;7.15;72.22;100869.69;4416776;32;20080;-76
2021/01/17 04:44:51;;;;;;;12.77;1.90;;;;;;;7.17;72.03;100879.25;4417309;32;20071;-76
2021/01/17 04:47:19;;;;;;;9.30;1.52;;;;;;;7.27;72.01;100872.00;4416401;32;20022;-77
2021/01/17 04:49:48;;;;;;;12.45;1.98;;;;;;;7.12;72.17;100867.72;4419651;32;20058;-78
2021/01/17 04:52:14;;;;;;;7.12;1.50;;;;;;;7.31;71.99;100876.34;4417212;32;20034;-76
2021/01/17 04:54:41;;;;;;;16.73;2.03;;;;;;;7.26;71.83;100892.78;4415610;32;20065;-76
2021/01/17 04:57:12;;;;;;;10.35;1.37;;;;;;;7.34;71.86;100903.50;4414037;32;20056;-76
2021/01/17 05:00:05;;;;;;;9.43;1.70;;;;;;;7.32;71.55;100907.94;4414411;32;20038;-76
2021/01/17 05:07:49;;;;;;;7.45;1.20;;;;;;;7.72;69.71;100940.78;3975107;32;15023417;-75
2021/01/17 05:10:32;;;;;;;7.93;1.53;;;;;;;7.72;69.71;100940.78;4426619;32;20481;-76
2021/01/17 05:13:07;;;;;;;9.77;1.20;;;;;;;7.25;70.44;100947.19;4427263;32;20133;-76
2021/01/17 05:15:37;;;;;;;11.88;1.40;;;;;;;7.10;71.15;100949.28;4428194;32;20050;-76
2021/01/17 05:18:03;;;;;;;8.85;1.10;;;;;;;7.16;70.79;100963.63;4429474;32;20029;-75
2021/01/17 05:20:28;;;;;;;5.37;1.20;;;;;;;7.14;70.33;100957.62;4424719;32;20130;-75
2021/01/17 05:22:56;;;;;;;6.87;1.10;;;;;;;7.22;70.41;100965.59;4429005;32;20069;-75
2021/01/17 05:25:26;;;;;;;4.07;0.80;;;;;;;7.36;70.18;100956.28;4427592;32;20030;-75
2021/01/17 05:27:52;;;;;;;7.78;1.25;;;;;;;7.41;70.34;100956.66;4427053;32;20055;-75
2021/01/17 05:30:18;;;;;;;5.93;1.42;;;;;;;7.28;70.90;100949.97;4431036;32;20335;-75
2021/01/17 05:32:49;;;;;;;12.80;1.50;;;;;;;7.31;71.03;100948.34;4428586;32;20045;-76
2021/01/17 05:35:17;;;;;;;9.20;1.48;;;;;;;7.08;72.20;100943.28;4414584;32;20050;-75
2021/01/17 05:37:52;;;;;;;4.68;0.90;;;;;;;7.02;72.43;100953.31;4413661;32;20399;-76
2021/01/17 05:40:18;;;;;;;9.73;1.37;;;;;;;7.05;72.48;100952.50;4407461;32;20046;-75
2021/01/17 05:42:45;;;;;;;6.70;1.02;;;;;;;7.06;72.11;100951.28;4405954;32;20043;-75
2021/01/17 05:48:06;;;;;;;8.32;1.58;;;;;;;7.45;70.95;100954.63;3960083;32;15727599;-75
2021/01/17 05:50:33;;;;;;;11.52;1.35;;;;;;;7.45;70.95;100954.63;4440242;32;20083;-76
2021/01/17 05:53:02;;;;;;;10.68;1.70;;;;;;;7.07;71.65;100954.91;4437676;32;20029;-75
2021/01/17 06:01:17;;;;;;;8.13;1.20;;;;;;;7.57;69.59;100965.31;3986822;32;15023817;-76
2021/01/17 06:04:07;;;;;;;9.07;1.45;;;;;;;7.57;69.59;100965.31;4436226;32;20302;-76
2021/01/17 06:06:33;;;;;;;4.82;0.90;;;;;;;7.26;70.50;100971.97;4440183;32;20037;-76
2021/01/17 06:09:00;;;;;;;4.85;1.40;;;;;;;7.27;70.18;100964.38;4436262;32;20042;-76
2021/01/17 06:11:27;;;;;;;12.05;1.35;;;;;;;7.24;70.42;100979.19;4439697;32;20033;-77
2021/01/17 06:13:55;;;;;;;7.10;1.30;;;;;;;7.17;70.76;100963.22;4435194;32;20052;-77
2021/01/17 06:16:23;;;;;;;8.25;1.35;;;;;;;7.21;70.90;100974.41;4442566;32;20441;-75
2021/01/17 06:18:59;;;;;;;7.70;1.35;;;;;;;7.23;70.86;100989.56;4440489;32;20411;-76
2021/01/17 06:21:26;;;;;;;10.32;1.60;;;;;;;7.21;70.97;100991.97;4440968;32;20041;-74
2021/01/17 06:23:54;;;;;;;11.48;1.42;;;;;;;7.13;71.38;100995.25;4437102;32;20436;-77
2021/01/17 06:26:25;;;;;;;9.20;1.00;;;;;;;7.09;71.60;101000.06;4439331;32;20049;-76
2021/01/17 06:28:51;;;;;;;11.52;1.35;;;;;;;7.16;71.56;100992.44;4434733;32;20030;-76
2021/01/17 06:31:21;;;;;;;11.60;1.67;;;;;;;7.08;71.76;100990.88;4436608;32;20476;-75
2021/01/17 06:33:49;;;;;;;7.35;1.30;;;;;;;7.19;71.43;100988.00;4430971;32;20098;-75
2021/01/17 06:36:16;;;;;;;9.60;1.10;;;;;;;7.12;71.66;101007.66;4429978;32;20459;-75
2021/01/17 06:38:44;;;;;;;9.75;1.35;;;;;;;7.00;71.88;101030.50;4424183;32;20030;-76
2021/01/17 06:41:11;;;;;;;10.65;1.40;;;;;;;6.94;72.39;101038.53;4430543;32;20060;-75
2021/01/17 06:43:40;;;;;;;6.40;1.25;;;;;;;6.98;71.99;101044.91;4423707;32;20037;-75
2021/01/17 06:46:07;;;;;;;8.35;1.50;;;;;;;6.83;72.42;101051.75;4426238;32;20069;-75
2021/01/17 06:48:32;;;;;;;10.20;1.80;;;;;;;6.78;72.59;101040.97;4421545;32;20083;-75
2021/01/17 06:51:15;;;;;;;9.95;2.12;;;;;;;6.82;72.54;101050.16;4426358;32;20050;-75
2021/01/17 06:53:50;;;;;;;9.05;1.20;;;;;;;6.90;71.92;101053.72;4427111;32;20060;-75
2021/01/17 06:56:16;;;;;;;8.60;1.20;;;;;;;6.82;71.81;101052.97;4422914;32;20068;-74
2021/01/17 06:58:44;;;;;;;6.55;1.40;;;;;;;6.82;72.04;101066.12;4427337;32;20026;-75
2021/01/17 07:01:10;;;;;;;9.38;1.50;;;;;;;6.86;71.46;101059.31;4425623;32;20135;-74
2021/01/17 07:04:16;;;;;;;14.05;2.10;;;;;;;6.90;71.24;101062.91;4426486;32;20083;-76
2021/01/17 07:15:02;;;;;;;12.77;1.52;;;;;;;7.41;69.34;101079.84;3990272;32;15024250;-75
2021/01/17 07:17:32;;;;;;;9.98;1.10;;;;;;;7.10;70.00;101075.22;4438701;32;20037;-76
2021/01/17 07:20:03;;;;;;;6.82;1.35;;;;;;;7.01;69.96;101076.84;4442948;32;20042;-75
2021/01/17 07:22:30;;;;;;;9.52;1.25;;;;;;;7.02;69.81;101076.44;4438912;32;20037;-75
2021/01/17 07:24:57;;;;;;;12.77;2.00;;;;;;;7.08;69.82;101077.63;4442305;32;20026;-75
2021/01/17 07:30:02;;;;;;;10.65;1.37;;;;;;;7.42;68.79;101075.03;3984584;32;15161589;-75
2021/01/17 07:32:34;;;;;;;6.93;1.30;;;;;;;7.42;68.79;101075.03;4442904;32;20041;-77
2021/01/17 07:35:09;;;;;;;7.12;1.48;;;;;;;6.88;70.17;101078.50;4431627;32;20106;-76
2021/01/17 07:37:40;;;;;;;12.73;1.75;;;;;;;6.97;70.11;101092.88;4426639;32;20060;-75
2021/01/17 07:40:08;;;;;;;13.62;2.08;;;;;;;6.77;70.95;101105.69;4428697;32;20375;-75
2021/01/17 07:42:36;;;;;;;7.28;1.37;;;;;;;6.77;71.12;101109.31;4429440;32;20080;-76
2021/01/17 07:45:18;;;;;;;9.55;1.90;;;;;;;6.81;70.95;101107.28;4428886;32;20069;-75
2021/01/17 07:47:45;;;;;;;13.68;2.62;;;;;;;6.88;70.91;101112.06;4417655;32;20038;-76
2021/01/17 07:50:12;;;;;;;7.57;1.37;;;;;;;6.93;70.68;101108.88;4429462;32;20073;-75
2021/01/17 07:52:43;;;;;;;9.15;1.80;;;;;;;7.02;70.37;101103.62;4424980;32;20411;-74
2021/01/17 07:55:13;;;;;;;15.38;1.58;;;;;;;6.94;70.41;101119.66;4431005;32;20085;-75
2021/01/17 07:57:44;;;;;;;6.90;1.87;;;;;;;6.86;70.86;101129.25;4428958;32;20453;-76
2021/01/17 08:00:10;;;;;;;11.10;1.40;;;;;;;6.81;71.02;101120.50;4427329;32;20014;-75
2021/01/17 08:02:36;;;;;;;13.75;1.60;;;;;;;6.95;70.50;101126.03;4428513;32;20025;-74
2021/01/17 08:05:04;;;;;;;12.90;1.83;;;;;;;6.98;70.51;101128.84;4430140;32;20064;-76
2021/01/17 08:07:32;;;;;;;8.40;1.73;;;;;;;6.92;70.55;101124.84;4430029;32;20465;-75
2021/01/17 08:09:59;;;;;;;16.08;1.73;;;;;;;6.98;70.34;101126.03;4429164;32;20022;-74
2021/01/17 08:12:29;;;;;;;8.32;1.20;;;;;;;6.98;70.46;101134.44;4423578;32;20041;-76
2021/01/17 08:15:15;;;;;;;7.78;1.05;;;;;;;6.99;70.55;101143.59;4428008;32;20064;-76
2021/01/17 08:17:41;;;;;;;10.80;1.42;;;;;;;6.97;70.97;101143.22;4427061;32;20117;-75
2021/01/17 08:20:07;;;;;;;8.23;1.10;;;;;;;6.87;71.51;101142.03;4430855;32;20060;-77
2021/01/17 08:22:40;;;;;;;8.10;1.33;;;;;;;6.96;71.62;101150.81;4428344;32;20175;-77
2021/01/17 08:25:05;;;;;;;8.02;1.77;;;;;;;7.02;71.43;101151.19;4424858;32;20362;-75
2021/01/17 08:27:33;;;;;;;6.95;1.10;;;;;;;6.83;72.51;101149.66;4427613;32;20037;-75
2021/01/17 08:32:54;;;;;;;11.80;1.40;;;;;;;7.37;71.85;101171.44;3986214;32;15023007;-76
2021/01/17 08:38:18;;;;;;;10.65;1.77;;;;;;;7.57;71.07;101178.16;3963745;32;15722552;-77
2021/01/17 08:40:49;;;;;;;10.60;1.48;;;;;;;7.57;71.07;101178.16;4426757;32;20378;-75
2021/01/17 08:43:16;;;;;;;12.23;1.58;;;;;;;7.18;71.84;101190.75;4437252;32;20042;-76
2021/01/17 08:48:23;;;;;;;9.93;1.52;;;;;;;7.65;71.38;101218.16;3986866;32;15024078;-76
2021/01/17 08:53:29;;;;;;;14.32;2.00;;;;;;;7.74;71.17;101218.50;3960158;32;15734429;-75
2021/01/17 08:55:59;;;;;;;14.38;1.80;;;;;;;7.74;71.17;101218.50;4438090;32;20034;-75
2021/01/17 09:19:33;;;;;;;26.95;2.22;;;;;;;8.10;68.76;101239.50;3972582;32;15026091;-76
2021/01/17 09:22:01;;;;;;;11.12;1.67;;;;;;;8.10;68.76;101239.50;4427759;32;20437;-76
2021/01/17 09:24:30;;;;;;;14.52;1.65;;;;;;;7.58;69.90;101246.97;4424928;32;20144;-76
2021/01/17 09:26:57;;;;;;;13.35;1.80;;;;;;;7.46;70.15;101244.63;4428272;32;20029;-77
2021/01/17 09:34:41;;;;;;;15.85;2.58;;;;;;;8.17;68.45;101259.09;4010278;31;15014273;-75
2021/01/17 09:37:09;;;;;;;15.75;2.40;;;;;;;8.17;68.45;101259.09;4464414;32;20028;-76
2021/01/17 09:39:37;;;;;;;11.90;2.47;;;;;;;7.71;68.98;101267.72;4472713;32;20087;-77
2021/01/17 09:42:06;;;;;;;18.12;1.75;;;;;;;7.75;68.78;101273.31;4466213;32;20070;-76
2021/01/17 09:44:32;;;;;;;17.20;1.90;;;;;;;7.74;68.81;101272.53;4469875;32;20041;-77
2021/01/17 09:46:59;;;;;;;12.40;1.80;;;;;;;7.64;69.07;101286.59;4470618;32;20049;-77
2021/01/17 09:49:27;;;;;;;13.75;1.45;;;;;;;7.76;68.80;101284.13;4463261;32;20041;-75
2021/01/17 09:51:53;;;;;;;14.32;1.80;;;;;;;7.70;69.17;101291.34;4467423;32;20051;-76
2021/01/17 09:54:19;;;;;;;8.95;1.87;;;;;;;7.75;68.95;101295.75;4465520;32;20025;-76
2021/01/17 09:56:46;;;;;;;15.30;2.08;;;;;;;7.94;68.40;101310.06;4455979;32;20137;-77
2021/01/17 09:59:13;;;;;;;12.93;1.90;;;;;;;7.98;68.21;101321.28;4468641;32;20978;-76
2021/01/17 10:01:40;;;;;;;8.68;1.70;;;;;;;8.14;67.77;101330.00;4466860;32;20444;-76
2021/01/17 10:04:05;;;;;;;13.15;1.87;;;;;;;8.05;67.72;101324.03;4469807;32;20080;-75
2021/01/17 10:06:33;;;;;;;18.40;3.47;;;;;;;8.18;68.08;101323.19;4477464;32;20335;-75
2021/01/17 10:08:59;;;;;;;18.12;1.83;;;;;;;8.37;67.67;101333.09;4467790;32;20088;-75
2021/01/17 10:11:25;;;;;;;14.68;1.90;;;;;;;8.32;67.17;101332.75;4470748;32;20080;-76
2021/01/17 10:13:50;;;;;;;16.58;2.15;;;;;;;8.39;67.26;101349.53;4468051;32;20364;-75
2021/01/17 10:16:24;;;;;;;11.12;1.90;;;;;;;8.39;66.99;101352.34;4469632;32;20016;-75
2021/01/17 10:18:50;;;;;;;12.55;1.90;;;;;;;8.52;66.64;101356.25;4464548;32;20065;-77
2021/01/17 10:21:18;;;;;;;11.98;1.70;;;;;;;8.53;66.75;101347.44;4473688;32;20040;-77
2021/01/17 10:23:44;;;;;;;6.85;1.77;;;;;;;8.43;67.26;101341.91;4466924;32;20136;-77
2021/01/17 10:26:12;;;;;;;12.57;1.98;;;;;;;8.49;66.97;101360.69;4465400;32;20805;-76
2021/01/17 10:28:38;;;;;;;13.38;2.28;;;;;;;8.61;67.37;101371.44;4464674;32;20029;-77
2021/01/17 10:31:03;;;;;;;16.52;1.92;;;;;;;8.69;66.84;101377.81;4471111;32;20514;-75
2021/01/17 10:33:30;;;;;;;18.70;2.05;;;;;;;8.85;66.46;101364.88;4465176;32;20544;-76
2021/01/17 10:35:56;;;;;;;14.50;2.00;;;;;;;8.92;66.26;101375.25;4471360;32;20028;-76
2021/01/17 10:38:22;;;;;;;13.95;2.17;;;;;;;8.86;66.47;101374.88;4468329;32;20389;-76
2021/01/17 10:40:49;;;;;;;18.50;2.40;;;;;;;8.78;66.67;101372.53;4473176;32;20029;-76
2021/01/17 10:43:28;;;;;;;11.40;1.85;;;;;;;8.83;67.05;101386.13;4467039;32;20037;-74
2021/01/17 10:48:51;;;;;;;10.13;1.55;;;;;;;8.76;66.68;101370.16;3991569;32;15028003;-77
2021/01/17 10:51:22;;;;;;;12.18;1.58;;;;;;;8.70;67.10;101370.97;4441661;32;20139;-77
2021/01/17 10:53:51;;;;;;;12.95;1.80;;;;;;;8.59;67.17;101387.88;4444695;32;20013;-76
2021/01/17 10:56:19;;;;;;;9.10;1.35;;;;;;;8.60;66.84;101375.47;4441586;32;20075;-76
2021/01/17 10:58:45;;;;;;;14.73;2.28;;;;;;;8.58;67.42;101386.28;4439207;32;20094;-76
2021/01/17 11:01:11;;;;;;;16.50;2.25;;;;;;;8.55;67.97;101383.50;4443600;32;20422;-76
2021/01/17 11:03:41;;;;;;;18.80;2.10;;;;;;;8.39;68.46;101380.38;4443589;32;20052;-76
2021/01/17 11:06:26;;;;;;;15.70;2.20;;;;;;;8.46;68.33;101381.16;4446145;32;20063;-76
2021/01/17 11:08:55;;;;;;;17.98;1.70;;;;;;;8.49;68.39;101388.75;4443308;32;20410;-76
2021/01/17 11:11:24;;;;;;;12.13;1.60;;;;;;;8.48;68.36;101384.34;4444050;32;20041;-75
2021/01/17 11:16:52;;;;;;;19.17;1.95;;;;;;;8.79;66.69;101397.38;3989163;32;15022728;-75
2021/01/17 11:19:18;;;;;;;9.70;1.67;;;;;;;8.97;66.36;101400.06;4446248;32;20060;-76
2021/01/17 11:21:45;;;;;;;12.30;2.25;;;;;;;9.10;65.36;101393.56;4444562;32;20095;-76
2021/01/17 11:24:13;;;;;;;15.77;1.67;;;;;;;9.20;65.50;101397.47;4445562;32;20073;-75
2021/01/17 11:26:39;;;;;;;20.42;2.28;;;;;;;9.30;64.85;101397.41;4442412;32;20069;-75
2021/01/17 11:29:07;;;;;;;10.30;1.50;;;;;;;9.31;64.69;101403.81;4446299;32;20044;-75
2021/01/17 11:31:34;;;;;;;15.43;2.47;;;;;;;9.31;64.87;101390.59;4443552;32;20825;-75
2021/01/17 11:34:11;;;;;;;16.83;2.50;;;;;;;9.40;65.15;101392.91;4432753;32;20320;-75
2021/01/17 11:36:37;;;;;;;12.37;2.12;;;;;;;9.46;64.77;101400.50;4426561;32;20414;-75
2021/01/17 11:39:05;;;;;;;15.90;1.92;;;;;;;9.22;65.65;101393.06;4423661;32;20424;-75
2021/01/17 11:41:34;;;;;;;15.50;2.30;;;;;;;9.26;65.29;101390.22;4427509;32;20030;-75
2021/01/17 11:44:18;;;;;;;13.32;2.70;;;;;;;9.33;65.41;101393.75;4425365;32;20043;-75
2021/01/17 11:46:44;;;;;;;19.75;2.08;;;;;;;9.42;65.03;101408.12;4427509;32;20112;-75
2021/01/17 11:49:11;;;;;;;10.68;1.77;;;;;;;9.31;65.09;101413.06;4427497;32;20688;-74
2021/01/17 11:51:38;;;;;;;12.65;2.62;;;;;;;9.29;65.66;101407.03;4425596;32;20026;-75
2021/01/17 11:54:25;;;;;;;14.18;2.72;;;;;;;9.38;64.85;101407.38;4428129;32;20398;-76
2021/01/17 11:57:04;;;;;;;17.25;2.60;;;;;;;9.30;65.52;101397.41;4428206;32;20022;-75
2021/01/17 11:59:33;;;;;;;14.70;1.87;;;;;;;9.30;65.76;101408.62;4428883;32;20450;-76
2021/01/17 12:02:20;;;;;;;14.65;2.85;;;;;;;9.65;65.25;101408.34;4427424;32;20126;-75
2021/01/17 12:04:57;;;;;;;12.32;1.85;;;;;;;9.90;64.53;101408.06;4425984;32;20022;-75
2021/01/17 12:07:22;;;;;;;12.82;1.87;;;;;;;10.05;63.33;101413.13;4428304;32;20431;-75
2021/01/17 12:09:48;;;;;;;8.32;1.98;;;;;;;9.98;63.69;101403.97;4425526;32;20065;-77
2021/01/17 12:12:16;;;;;;;12.35;1.62;;;;;;;10.24;63.21;101406.09;4425158;32;20476;-75
2021/01/17 12:14:42;;;;;;;14.07;2.50;;;;;;;10.03;62.96;101409.13;4428259;32;20046;-75
2021/01/17 12:17:10;;;;;;;16.23;2.53;;;;;;;10.08;61.58;101409.50;4425714;32;20081;-75
2021/01/17 12:19:36;;;;;;;11.90;1.90;;;;;;;9.98;61.88;101413.19;4426024;32;20466;-75
2021/01/17 12:22:06;;;;;;;11.68;1.50;;;;;;;9.78;62.38;101417.03;4425838;32;20473;-76
2021/01/17 12:24:33;;;;;;;15.43;2.75;;;;;;;9.66;62.59;101421.16;4424246;32;20017;-74
2021/01/17 12:26:58;;;;;;;14.55;1.80;;;;;;;9.52;62.87;101406.44;4423804;32;20042;-75
2021/01/17 12:29:24;;;;;;;14.00;2.10;;;;;;;9.61;62.70;101413.16;4419228;32;20461;-76
2021/01/17 12:31:51;;;;;;;15.68;2.35;;;;;;;9.37;63.54;101417.03;4416632;32;20348;-75
2021/01/17 12:34:18;;;;;;;12.85;1.95;;;;;;;9.52;63.27;101410.06;4415911;32;20099;-75
2021/01/17 12:36:44;;;;;;;9.30;2.03;;;;;;;9.55;63.06;101411.25;4414404;32;20476;-76
2021/01/17 12:39:12;;;;;;;17.30;1.95;;;;;;;9.56;62.97;101408.00;4418858;32;20391;-76
2021/01/17 12:41:42;;;;;;;14.38;2.22;;;;;;;9.73;62.60;101411.88;4416985;32;20056;-76
2021/01/17 12:44:07;;;;;;;20.83;1.92;;;;;;;9.61;63.48;101395.53;4415635;32;20068;-75
2021/01/17 12:46:33;;;;;;;16.92;2.62;;;;;;;9.72;63.08;101408.25;4417765;32;20038;-75
2021/01/17 12:48:59;;;;;;;18.75;2.05;;;;;;;9.73;62.80;101395.78;4418864;32;20061;-75